Maersk Vallvik — 9V8839 — position and weather

sailwx.info

Track history (hours):
 
Tides and Currents Weather Stations Pressure Air Temp Water Temp Dewpoint Dewpoint Depression Visibility Wind Speed Wind Dir Waves Ship Positions

Maersk Vallvik

Last reported at 2017-Jan-23 23:33 UTC. Time now 2017-Jan-24 11:15 UTC.
Position N 36°48' W 075°47'.

Length 180 m; draft 9.8 m.

Type: Ship (hazmat cat A). MMSI: 564837000.

Date/timePositionNaut miles runAvg speedWind from/ knotsBaromVisibWave heightAir tempDewpointWater temp
2017-Jan-23 23:33N 36°48' W 075°47'1010.0
2017-Jan-23 22:33N 36°55' W 075°56'1111.2
2017-Jan-23 21:33N 36°59' W 076°09'10 9.9
2017-Jan-23 20:33N 36°55' W 076°20'2 2.4
2017-Jan-23 19:32N 36°52' W 076°21'0 0.0
2017-Jan-23 18:32N 36°52' W 076°21'0 0.0
2017-Jan-23 17:32N 36°52' W 076°21'0 0.0
2017-Jan-23 16:32N 36°52' W 076°21'0 0.0
2017-Jan-23 15:32N 36°52' W 076°21'0 0.0
2017-Jan-23 14:32N 36°52' W 076°21'0 0.0
2017-Jan-23 13:32N 36°52' W 076°21'0 0.0
2017-Jan-23 12:32N 36°52' W 076°21'0 0.0
2017-Jan-23 11:32N 36°52' W 076°21'0 0.0
2017-Jan-23 10:32N 36°52' W 076°21'0 0.0
2017-Jan-23 09:32N 36°52' W 076°21'0 0.0
2017-Jan-23 08:34N 36°52' W 076°21'6 5.5
2017-Jan-23 07:33N 36°58' W 076°20'1212.3
2017-Jan-23 06:34N 36°58' W 076°05'5714.0
2017-Jan-23 02:29N 37°55' W 076°11'5317.9
2017-Jan-22 23:33N 38°46' W 076°25'1717.0
2017-Jan-22 22:33N 39°03' W 076°23'1211.9
2017-Jan-22 21:33N 39°13' W 076°32'2 2.4
2017-Jan-22 20:31N 39°15' W 076°33'0 0.0
2017-Jan-22 19:31N 39°15' W 076°33'0 0.0
2017-Jan-22 18:31N 39°15' W 076°33'0 0.0
2017-Jan-22 17:31N 39°15' W 076°33'0 0.0
2017-Jan-22 16:31N 39°15' W 076°33'0 0.0
2017-Jan-22 15:31N 39°15' W 076°33'0 0.0
2017-Jan-22 14:31N 39°15' W 076°33'0 0.0
2017-Jan-22 13:31N 39°15' W 076°33'0 0.0
2017-Jan-22 12:31N 39°15' W 076°33'0 0.0
2017-Jan-22 11:31N 39°15' W 076°33'0 0.0
2017-Jan-22 10:31N 39°15' W 076°33'0 0.0
2017-Jan-22 09:31N 39°15' W 076°33'0 0.0
2017-Jan-22 08:31N 39°15' W 076°33'0 0.0
2017-Jan-22 07:31N 39°15' W 076°33'0 0.0
2017-Jan-22 06:31N 39°15' W 076°33'0 0.0
2017-Jan-22 05:31N 39°15' W 076°33'0 0.0
2017-Jan-22 04:31N 39°15' W 076°33'0 0.0
2017-Jan-22 03:31N 39°15' W 076°33'0 0.0
2017-Jan-22 02:31N 39°15' W 076°33'0 0.0
2017-Jan-22 01:31N 39°15' W 076°33'0 0.0
2017-Jan-22 00:31N 39°15' W 076°33'0 0.0
2017-Jan-21 23:31N 39°15' W 076°33'0 0.0
2017-Jan-21 22:31N 39°15' W 076°33'0 0.0
2017-Jan-21 21:31N 39°15' W 076°33'0 0.0
2017-Jan-21 20:31N 39°15' W 076°33'0 0.0
2017-Jan-21 19:31N 39°15' W 076°33'0 0.0
2017-Jan-21 18:31N 39°15' W 076°33'0 0.0
2017-Jan-21 17:31N 39°15' W 076°33'0 0.0
2017-Jan-21 16:31N 39°15' W 076°33'0 0.0
2017-Jan-21 15:31N 39°15' W 076°33'0 0.0
2017-Jan-21 14:31N 39°15' W 076°33'0 0.0
2017-Jan-21 13:31N 39°15' W 076°33'0 0.0
2017-Jan-21 12:31N 39°15' W 076°33'0 0.0
2017-Jan-21 11:31N 39°15' W 076°33'0 0.3
2017-Jan-21 10:33N 39°15' W 076°33'7 7.4
2017-Jan-21 09:33N 39°10' W 076°26'1414.4
2017-Jan-21 08:33N 38°56' W 076°24'2017.1
2017-Jan-21 07:24N 38°36' W 076°26'1716.8
2017-Jan-21 06:24N 38°20' W 076°18'2217.1
2017-Jan-21 05:07N 37°59' W 076°12'70 6.0
2017-Jan-20 17:33N 37°52' W 074°44'1515.0
2017-Jan-20 16:33N 38°05' W 074°34'1313.1
2017-Jan-20 15:33N 38°16' W 074°25'1413.6
2017-Jan-20 14:31N 38°28' W 074°16'1312.9
2017-Jan-20 13:33N 38°39' W 074°10'1512.1
2017-Jan-20 12:20N 38°54' W 074°05'912.2
2017-Jan-20 11:33N 39°03' W 074°01'1212.1
2017-Jan-20 10:33N 39°15' W 073°58'1412.2
2017-Jan-20 09:25N 39°28' W 073°55'1112.2
2017-Jan-20 08:32N 39°39' W 073°53'1212.2
2017-Jan-20 07:33N 39°51' W 073°52'1212.3
2017-Jan-20 06:33N 40°03' W 073°50'1111.1
2017-Jan-20 05:33N 40°14' W 073°49'10 9.9
2017-Jan-20 04:33N 40°24' W 073°49'8 8.1
2017-Jan-20 03:33N 40°30' W 073°56'1211.6
2017-Jan-20 02:34N 40°39' W 074°06'4 3.6
2017-Jan-20 01:33N 40°41' W 074°09'0 0.0
2017-Jan-20 00:32N 40°41' W 074°09'0 0.0
2017-Jan-19 23:32N 40°41' W 074°09'0 0.0
2017-Jan-19 22:29N 40°41' W 074°09'0 0.0
2017-Jan-19 21:32N 40°41' W 074°09'0 0.0
2017-Jan-19 20:32N 40°41' W 074°09'0 0.0
2017-Jan-19 19:32N 40°41' W 074°09'0 0.0
2017-Jan-19 18:32N 40°41' W 074°09'0 0.0
2017-Jan-19 17:32N 40°41' W 074°09'0 0.0
2017-Jan-19 16:32N 40°41' W 074°09'0 0.0
2017-Jan-19 15:32N 40°41' W 074°09'0 0.0
2017-Jan-19 14:32N 40°41' W 074°09'0 0.0
2017-Jan-19 13:32N 40°41' W 074°09'0 0.0
2017-Jan-19 12:32N 40°41' W 074°09'0 0.0
2017-Jan-19 11:32N 40°41' W 074°09'1 1.2
2017-Jan-19 10:33N 40°40' W 074°08'5 4.6
2017-Jan-19 09:33N 40°38' W 074°03'1110.7
2017-Jan-19 08:33N 40°29' W 073°54'7 6.9
2017-Jan-19 07:33N 40°26' W 073°46'7 6.7
2017-Jan-19 06:33N 40°22' W 073°39'  
Track history (hours):
 
Tides and Currents Weather Stations Pressure Air Temp Water Temp Dewpoint Dewpoint Depression Visibility Wind Speed Wind Dir Waves Ship Positions

Maersk Vallvik

Last reported at 2017-Jan-23 23:33 UTC. Time now 2017-Jan-24 11:15 UTC.
Position N 36°48' W 075°47'.

Length 180 m; draft 9.8 m.

Type: Ship (hazmat cat A). MMSI: 564837000.

Date/timePositionNaut miles runAvg speedWind from/ knotsBaromVisibWave heightAir tempDewpointWater temp
2017-Jan-23 23:33N 36°48' W 075°47'1010.0
2017-Jan-23 22:33N 36°55' W 075°56'1111.2
2017-Jan-23 21:33N 36°59' W 076°09'10 9.9
2017-Jan-23 20:33N 36°55' W 076°20'2 2.4
2017-Jan-23 19:32N 36°52' W 076°21'0 0.0
2017-Jan-23 18:32N 36°52' W 076°21'0 0.0
2017-Jan-23 17:32N 36°52' W 076°21'0 0.0
2017-Jan-23 16:32N 36°52' W 076°21'0 0.0
2017-Jan-23 15:32N 36°52' W 076°21'0 0.0
2017-Jan-23 14:32N 36°52' W 076°21'0 0.0
2017-Jan-23 13:32N 36°52' W 076°21'0 0.0
2017-Jan-23 12:32N 36°52' W 076°21'0 0.0
2017-Jan-23 11:32N 36°52' W 076°21'0 0.0
2017-Jan-23 10:32N 36°52' W 076°21'0 0.0
2017-Jan-23 09:32N 36°52' W 076°21'0 0.0
2017-Jan-23 08:34N 36°52' W 076°21'6 5.5
2017-Jan-23 07:33N 36°58' W 076°20'1212.3
2017-Jan-23 06:34N 36°58' W 076°05'5714.0
2017-Jan-23 02:29N 37°55' W 076°11'5317.9
2017-Jan-22 23:33N 38°46' W 076°25'1717.0
2017-Jan-22 22:33N 39°03' W 076°23'1211.9
2017-Jan-22 21:33N 39°13' W 076°32'2 2.4
2017-Jan-22 20:31N 39°15' W 076°33'0 0.0
2017-Jan-22 19:31N 39°15' W 076°33'0 0.0
2017-Jan-22 18:31N 39°15' W 076°33'0 0.0
2017-Jan-22 17:31N 39°15' W 076°33'0 0.0
2017-Jan-22 16:31N 39°15' W 076°33'0 0.0
2017-Jan-22 15:31N 39°15' W 076°33'0 0.0
2017-Jan-22 14:31N 39°15' W 076°33'0 0.0
2017-Jan-22 13:31N 39°15' W 076°33'0 0.0
2017-Jan-22 12:31N 39°15' W 076°33'0 0.0
2017-Jan-22 11:31N 39°15' W 076°33'0 0.0
2017-Jan-22 10:31N 39°15' W 076°33'0 0.0
2017-Jan-22 09:31N 39°15' W 076°33'0 0.0
2017-Jan-22 08:31N 39°15' W 076°33'0 0.0
2017-Jan-22 07:31N 39°15' W 076°33'0 0.0
2017-Jan-22 06:31N 39°15' W 076°33'0 0.0
2017-Jan-22 05:31N 39°15' W 076°33'0 0.0
2017-Jan-22 04:31N 39°15' W 076°33'0 0.0
2017-Jan-22 03:31N 39°15' W 076°33'0 0.0
2017-Jan-22 02:31N 39°15' W 076°33'0 0.0
2017-Jan-22 01:31N 39°15' W 076°33'0 0.0
2017-Jan-22 00:31N 39°15' W 076°33'0 0.0
2017-Jan-21 23:31N 39°15' W 076°33'0 0.0
2017-Jan-21 22:31N 39°15' W 076°33'0 0.0
2017-Jan-21 21:31N 39°15' W 076°33'0 0.0
2017-Jan-21 20:31N 39°15' W 076°33'0 0.0
2017-Jan-21 19:31N 39°15' W 076°33'0 0.0
2017-Jan-21 18:31N 39°15' W 076°33'0 0.0
2017-Jan-21 17:31N 39°15' W 076°33'0 0.0
2017-Jan-21 16:31N 39°15' W 076°33'0 0.0
2017-Jan-21 15:31N 39°15' W 076°33'0 0.0
2017-Jan-21 14:31N 39°15' W 076°33'0 0.0
2017-Jan-21 13:31N 39°15' W 076°33'0 0.0
2017-Jan-21 12:31N 39°15' W 076°33'0 0.0
2017-Jan-21 11:31N 39°15' W 076°33'0 0.3
2017-Jan-21 10:33N 39°15' W 076°33'7 7.4
2017-Jan-21 09:33N 39°10' W 076°26'1414.4
2017-Jan-21 08:33N 38°56' W 076°24'2017.1
2017-Jan-21 07:24N 38°36' W 076°26'1716.8
2017-Jan-21 06:24N 38°20' W 076°18'2217.1
2017-Jan-21 05:07N 37°59' W 076°12'70 6.0
2017-Jan-20 17:33N 37°52' W 074°44'1515.0
2017-Jan-20 16:33N 38°05' W 074°34'1313.1
2017-Jan-20 15:33N 38°16' W 074°25'1413.6
2017-Jan-20 14:31N 38°28' W 074°16'1312.9
2017-Jan-20 13:33N 38°39' W 074°10'1512.1
2017-Jan-20 12:20N 38°54' W 074°05'912.2
2017-Jan-20 11:33N 39°03' W 074°01'1212.1
2017-Jan-20 10:33N 39°15' W 073°58'1412.2
2017-Jan-20 09:25N 39°28' W 073°55'1112.2
2017-Jan-20 08:32N 39°39' W 073°53'1212.2
2017-Jan-20 07:33N 39°51' W 073°52'1212.3
2017-Jan-20 06:33N 40°03' W 073°50'1111.1
2017-Jan-20 05:33N 40°14' W 073°49'10 9.9
2017-Jan-20 04:33N 40°24' W 073°49'8 8.1
2017-Jan-20 03:33N 40°30' W 073°56'1211.6
2017-Jan-20 02:34N 40°39' W 074°06'4 3.6
2017-Jan-20 01:33N 40°41' W 074°09'0 0.0
2017-Jan-20 00:32N 40°41' W 074°09'0 0.0
2017-Jan-19 23:32N 40°41' W 074°09'0 0.0
2017-Jan-19 22:29N 40°41' W 074°09'0 0.0
2017-Jan-19 21:32N 40°41' W 074°09'0 0.0
2017-Jan-19 20:32N 40°41' W 074°09'0 0.0
2017-Jan-19 19:32N 40°41' W 074°09'0 0.0
2017-Jan-19 18:32N 40°41' W 074°09'0 0.0
2017-Jan-19 17:32N 40°41' W 074°09'0 0.0
2017-Jan-19 16:32N 40°41' W 074°09'0 0.0
2017-Jan-19 15:32N 40°41' W 074°09'0 0.0
2017-Jan-19 14:32N 40°41' W 074°09'0 0.0
2017-Jan-19 13:32N 40°41' W 074°09'0 0.0
2017-Jan-19 12:32N 40°41' W 074°09'0 0.0
2017-Jan-19 11:32N 40°41' W 074°09'1 1.2
2017-Jan-19 10:33N 40°40' W 074°08'5 4.6
2017-Jan-19 09:33N 40°38' W 074°03'1110.7
2017-Jan-19 08:33N 40°29' W 073°54'7 6.9
2017-Jan-19 07:33N 40°26' W 073°46'7 6.7
2017-Jan-19 06:33N 40°22' W 073°39'  

Dump ship's entire track history